Tokuyama, Japan
Current Conditions -  °F | °C
As of 11:55 PM on Saturday 20 Dec 2014 (Local Time) from RJOI Reporting Station
Scattered Clouds Scattered Clouds  
Wind Chill: 39°   Ceiling: Unl
Heat Index: 43°   Visibility: 6mi
Dew Point: 34°   Wind: 6mph
Humidity: 71%   Direction: 270°W
Pressure: 30.1"   Gusts: NA
Location:  34.05°N, 131.8°E
Report Text: RJOI 201455Z 27005KT 9999 FEW025 SCT050 06/01 A3010 RMK SLP192 T00610011 401170044 51014
Loading
Personal Weather Stations






























Interactive Weather Map New forecast layout! Learn more

10-Day Weather Forecast

Advertisements
Track Severe Weather on mobile